GIBO2: Ft Gibson Lake, OK

Data processed at Fri Jan 05 2018 23:31


All information presented herein is the property of the government of the United States of America and may be revised or deleted at any time without prior notice.
Dissemination of this information without the expressed written consent of the Public Affairs Office, Tulsa District U.S. Army Corps of Engineers is strictly prohibited.
These data are gathered electronically and, as presented, have not undergone any form of quality control. These data are not guaranteed to be valid or correct.
Go to home page.
Go to station list.

Upstream stations:

Downstream station:
Previous Day
Next Day
Current Day
    
SHEF ID:       GIBO2     Ft Gibson Lake, OK
STATION TYPE:  RESERVOIR
Normal Pool:  Bottom =   551.00, Top =   554.00

               PRECIP ELEVATION   STORAGE   TW-ELEV    INFLOW   RELEASE  AIR-TEMP  WIND-DIRWIND-SPEED REL-HUMID SOLAR-RAD   VOLTAGE  BAT-LOAD
                   in        ft     ac-ft        ft       cfs       cfs         F       deg       mph         %      W/m2      volt      volt
              Ccp-Rev   Ccp-Rev   Ccp-Rev   Ccp-Rev  Regi-Rev  Regi-Rev   Ccp-Rev   Ccp-Rev   Ccp-Rev   Ccp-Rev   Ccp-Rev   Ccp-Rev   Ccp-Rev
(US/Central)
01/03 00:00      0.00    552.94    345420    489.91         0         0     20.98    161.40      0.18     60.07      0.00     13.66     13.48
01/03 01:00      0.00    552.98    346140    489.89         0         0     20.53    168.40      0.06     66.41      0.00     13.66     13.48
01/03 02:00      0.00    552.97    345960    489.87         0         0     18.68    171.30      0.04     78.38      0.00     13.66     13.48
01/03 03:00      0.00    552.94    345420    489.86         0         0     18.68    164.10      0.14     75.88      0.00     13.66     13.48
01/03 04:00      0.00    552.96    345780    489.89         0         0     17.13    171.20      0.04     82.35      0.00     13.66     13.48
01/03 05:00      0.00    552.97    345960    489.91         0         0     16.92    152.30      0.56     81.80      0.00     13.66     13.48
01/03 06:00      0.00    552.94    345420    489.90         0         0     17.13    162.80      0.49     80.82      0.00     13.66     13.48
01/03 07:00      0.00    552.91    344880    490.91       750       757     18.45    155.60      0.26     71.11      0.00     13.66     13.48
01/03 08:00      0.00    552.88    344340    493.89       750     11125     18.57    138.80      0.33     66.00      5.00     13.66     13.48
01/03 09:00      0.00    552.91    344880    493.76       750     11116     21.76    297.80      0.87     58.06     62.00     13.66     13.48
01/03 10:00      0.00    552.93    345240    491.42       750       761     26.26    329.90      0.38     55.80    308.00     13.66     13.48
01/03 11:00      0.00    552.88    344340    490.67       750         0     28.45     32.10      0.30     48.23    462.00     13.66     13.48
01/03 12:00      0.00    552.89    344520    490.38         0         0     31.86     16.40      0.81     48.47    560.00     13.66     13.48
01/03 13:00      0.00    552.90    344700    490.22         0         0     34.61      8.70      1.47     47.43    593.00     13.66     13.48
01/03 14:00      0.00    552.88    344340    490.13         0         0     37.15     35.90      0.23     47.99    559.00     13.66     13.48
01/03 15:00      0.00    552.90    344700    490.07         0         0     38.34    125.30      0.53     45.66    462.00     13.66     13.18
01/03 16:00      0.00    552.90    344700    490.01         3         0     38.89    171.20      0.33     42.49    309.00     13.66     13.18
01/03 17:00      0.00    552.81    343080    490.96         6       757     37.80    150.40      0.37     48.04    128.00     13.66     13.48
01/03 18:00      0.00    552.78    342540    493.91         8     10936     35.38    190.10      0.77     46.64      5.00     13.65     13.48
01/03 19:00      0.00    552.78    342540    494.30         8     11305     33.73     48.20      0.38     49.45      1.00     13.66     13.48
01/03 20:00      0.00    552.73    341640    494.36        18     11328     30.87      3.20      1.52     66.54      0.00     13.65     13.48
01/03 21:00      0.00    552.69    340920    493.81        24     11116     27.79    199.80      0.01     77.89      0.00     13.66     13.48
01/03 22:00      0.00    552.70    341100    491.44        40         0     26.91    165.30      0.00     76.00      0.00     13.65     13.48
01/03 23:00      0.00    552.66    340380    490.69        41         0     26.91    150.40      0.12     66.29      1.00     13.65     13.48